sensor_id;sensor_type;location;lat;lon;timestamp;temperature;humidity
9375;DHT22;4727;51.202;6.344;2022-07-23T00:01:00;18.70;99.90
9375;DHT22;4727;51.202;6.344;2022-07-23T00:03:25;18.70;99.90
9375;DHT22;4727;51.202;6.344;2022-07-23T00:05:52;18.60;99.90
9375;DHT22;4727;51.202;6.344;2022-07-23T00:08:17;18.60;99.90
9375;DHT22;4727;51.202;6.344;2022-07-23T00:10:43;18.60;99.90
9375;DHT22;4727;51.202;6.344;2022-07-23T00:13:09;18.60;99.90
9375;DHT22;4727;51.202;6.344;2022-07-23T00:15:35;18.60;99.90
9375;DHT22;4727;51.202;6.344;2022-07-23T00:18:00;18.70;99.90
9375;DHT22;4727;51.202;6.344;2022-07-23T00:20:26;18.70;99.90
9375;DHT22;4727;51.202;6.344;2022-07-23T00:22:54;18.70;99.90
9375;DHT22;4727;51.202;6.344;2022-07-23T00:25:21;18.60;99.90
9375;DHT22;4727;51.202;6.344;2022-07-23T00:27:47;18.60;99.90
9375;DHT22;4727;51.202;6.344;2022-07-23T00:30:13;18.60;99.90
9375;DHT22;4727;51.202;6.344;2022-07-23T00:33:06;18.60;99.90
9375;DHT22;4727;51.202;6.344;2022-07-23T00:35:35;18.50;99.90
9375;DHT22;4727;51.202;6.344;2022-07-23T00:38:02;18.40;99.90
9375;DHT22;4727;51.202;6.344;2022-07-23T00:40:28;18.40;99.90
9375;DHT22;4727;51.202;6.344;2022-07-23T00:42:54;18.30;99.90
9375;DHT22;4727;51.202;6.344;2022-07-23T00:45:20;18.30;99.90
9375;DHT22;4727;51.202;6.344;2022-07-23T00:47:46;18.30;99.90
9375;DHT22;4727;51.202;6.344;2022-07-23T00:50:12;18.30;99.90
9375;DHT22;4727;51.202;6.344;2022-07-23T00:52:39;18.20;99.90
9375;DHT22;4727;51.202;6.344;2022-07-23T00:55:06;18.00;99.90
9375;DHT22;4727;51.202;6.344;2022-07-23T00:57:32;18.00;99.90
9375;DHT22;4727;51.202;6.344;2022-07-23T00:59:58;17.90;99.90
9375;DHT22;4727;51.202;6.344;2022-07-23T01:02:25;17.80;99.90
9375;DHT22;4727;51.202;6.344;2022-07-23T01:04:51;17.70;99.90
9375;DHT22;4727;51.202;6.344;2022-07-23T01:07:17;17.60;99.90
9375;DHT22;4727;51.202;6.344;2022-07-23T01:09:44;17.50;99.90
9375;DHT22;4727;51.202;6.344;2022-07-23T01:12:10;17.40;99.90
9375;DHT22;4727;51.202;6.344;2022-07-23T01:14:36;17.40;99.90
9375;DHT22;4727;51.202;6.344;2022-07-23T01:17:02;17.40;99.90
9375;DHT22;4727;51.202;6.344;2022-07-23T01:19:27;17.50;99.90
9375;DHT22;4727;51.202;6.344;2022-07-23T01:21:53;17.50;99.90
9375;DHT22;4727;51.202;6.344;2022-07-23T01:24:20;17.50;99.90
9375;DHT22;4727;51.202;6.344;2022-07-23T01:26:47;17.50;99.90
9375;DHT22;4727;51.202;6.344;2022-07-23T01:29:14;17.50;99.90
9375;DHT22;4727;51.202;6.344;2022-07-23T01:31:40;17.60;99.90
9375;DHT22;4727;51.202;6.344;2022-07-23T01:34:06;17.70;99.90
9375;DHT22;4727;51.202;6.344;2022-07-23T01:36:33;17.80;99.90
9375;DHT22;4727;51.202;6.344;2022-07-23T01:38:59;17.80;99.90
9375;DHT22;4727;51.202;6.344;2022-07-23T01:41:24;17.90;99.90
9375;DHT22;4727;51.202;6.344;2022-07-23T01:43:50;17.90;99.90
9375;DHT22;4727;51.202;6.344;2022-07-23T01:46:16;17.90;99.90
9375;DHT22;4727;51.202;6.344;2022-07-23T01:48:42;17.90;99.90
9375;DHT22;4727;51.202;6.344;2022-07-23T01:51:07;17.80;99.90
9375;DHT22;4727;51.202;6.344;2022-07-23T01:53:33;17.80;99.90
9375;DHT22;4727;51.202;6.344;2022-07-23T01:55:59;17.80;99.90
9375;DHT22;4727;51.202;6.344;2022-07-23T01:58:26;17.70;99.90
9375;DHT22;4727;51.202;6.344;2022-07-23T02:00:52;17.60;99.90
9375;DHT22;4727;51.202;6.344;2022-07-23T02:03:17;17.60;99.90
9375;DHT22;4727;51.202;6.344;2022-07-23T02:05:43;17.60;99.90
9375;DHT22;4727;51.202;6.344;2022-07-23T02:08:08;17.60;99.90
9375;DHT22;4727;51.202;6.344;2022-07-23T02:10:34;17.60;99.90
9375;DHT22;4727;51.202;6.344;2022-07-23T02:13:00;17.60;99.90
9375;DHT22;4727;51.202;6.344;2022-07-23T02:15:26;17.50;99.90
9375;DHT22;4727;51.202;6.344;2022-07-23T02:17:52;17.50;99.90
9375;DHT22;4727;51.202;6.344;2022-07-23T02:20:17;17.40;99.90
9375;DHT22;4727;51.202;6.344;2022-07-23T02:22:43;17.40;99.90
9375;DHT22;4727;51.202;6.344;2022-07-23T02:25:08;17.40;99.90
9375;DHT22;4727;51.202;6.344;2022-07-23T02:27:35;17.40;99.90
9375;DHT22;4727;51.202;6.344;2022-07-23T02:30:01;17.40;99.90
9375;DHT22;4727;51.202;6.344;2022-07-23T02:32:27;17.40;99.90
9375;DHT22;4727;51.202;6.344;2022-07-23T02:34:52;17.30;99.90
9375;DHT22;4727;51.202;6.344;2022-07-23T02:37:18;17.20;99.90
9375;DHT22;4727;51.202;6.344;2022-07-23T02:39:43;17.20;99.90
9375;DHT22;4727;51.202;6.344;2022-07-23T02:42:09;17.10;99.90
9375;DHT22;4727;51.202;6.344;2022-07-23T02:44:35;17.00;99.90
9375;DHT22;4727;51.202;6.344;2022-07-23T02:47:00;17.00;99.90
9375;DHT22;4727;51.202;6.344;2022-07-23T02:49:26;17.00;99.90
9375;DHT22;4727;51.202;6.344;2022-07-23T02:51:52;16.90;99.90
9375;DHT22;4727;51.202;6.344;2022-07-23T02:54:17;17.00;99.90
9375;DHT22;4727;51.202;6.344;2022-07-23T02:56:43;17.00;99.90
9375;DHT22;4727;51.202;6.344;2022-07-23T02:59:09;17.00;99.90
9375;DHT22;4727;51.202;6.344;2022-07-23T03:01:35;17.10;99.90
9375;DHT22;4727;51.202;6.344;2022-07-23T03:04:00;17.10;99.90
9375;DHT22;4727;51.202;6.344;2022-07-23T03:06:26;17.20;99.90
9375;DHT22;4727;51.202;6.344;2022-07-23T03:08:52;17.20;99.90
9375;DHT22;4727;51.202;6.344;2022-07-23T03:11:17;17.10;99.90
9375;DHT22;4727;51.202;6.344;2022-07-23T03:13:43;17.00;99.90
9375;DHT22;4727;51.202;6.344;2022-07-23T03:16:09;17.00;99.90
9375;DHT22;4727;51.202;6.344;2022-07-23T03:18:34;17.00;99.90
9375;DHT22;4727;51.202;6.344;2022-07-23T03:21:00;16.90;99.90
9375;DHT22;4727;51.202;6.344;2022-07-23T03:23:26;16.80;99.90
9375;DHT22;4727;51.202;6.344;2022-07-23T03:25:51;16.70;99.90
9375;DHT22;4727;51.202;6.344;2022-07-23T03:28:17;16.60;99.90
9375;DHT22;4727;51.202;6.344;2022-07-23T03:30:45;16.50;99.90
9375;DHT22;4727;51.202;6.344;2022-07-23T03:33:18;16.50;99.90
9375;DHT22;4727;51.202;6.344;2022-07-23T03:35:44;16.40;99.90
9375;DHT22;4727;51.202;6.344;2022-07-23T03:38:10;16.40;99.90
9375;DHT22;4727;51.202;6.344;2022-07-23T03:40:36;16.40;99.90
9375;DHT22;4727;51.202;6.344;2022-07-23T03:43:01;16.40;99.90
9375;DHT22;4727;51.202;6.344;2022-07-23T03:45:27;16.40;99.90
9375;DHT22;4727;51.202;6.344;2022-07-23T03:47:53;16.30;99.90
9375;DHT22;4727;51.202;6.344;2022-07-23T03:50:18;16.30;99.90
9375;DHT22;4727;51.202;6.344;2022-07-23T03:52:44;16.20;99.90
9375;DHT22;4727;51.202;6.344;2022-07-23T03:55:10;16.20;99.90
9375;DHT22;4727;51.202;6.344;2022-07-23T03:57:36;16.10;99.90
9375;DHT22;4727;51.202;6.344;2022-07-23T04:00:03;16.10;99.90
9375;DHT22;4727;51.202;6.344;2022-07-23T04:02:29;16.10;99.90
9375;DHT22;4727;51.202;6.344;2022-07-23T04:04:55;15.90;99.90
9375;DHT22;4727;51.202;6.344;2022-07-23T04:07:21;15.90;99.90
9375;DHT22;4727;51.202;6.344;2022-07-23T04:09:47;15.90;99.90
9375;DHT22;4727;51.202;6.344;2022-07-23T04:12:12;16.00;99.90
9375;DHT22;4727;51.202;6.344;2022-07-23T04:14:38;15.90;99.90
9375;DHT22;4727;51.202;6.344;2022-07-23T04:17:03;15.90;99.90
9375;DHT22;4727;51.202;6.344;2022-07-23T04:19:29;16.00;99.90
9375;DHT22;4727;51.202;6.344;2022-07-23T04:21:56;16.00;99.90
9375;DHT22;4727;51.202;6.344;2022-07-23T04:24:21;16.00;99.90
9375;DHT22;4727;51.202;6.344;2022-07-23T04:26:47;16.10;99.90
9375;DHT22;4727;51.202;6.344;2022-07-23T04:29:12;16.10;99.90
9375;DHT22;4727;51.202;6.344;2022-07-23T04:31:38;16.10;99.90
9375;DHT22;4727;51.202;6.344;2022-07-23T04:34:04;16.10;99.90
9375;DHT22;4727;51.202;6.344;2022-07-23T04:36:30;16.00;99.90
9375;DHT22;4727;51.202;6.344;2022-07-23T04:38:55;16.10;99.90
9375;DHT22;4727;51.202;6.344;2022-07-23T04:41:21;16.10;99.90
9375;DHT22;4727;51.202;6.344;2022-07-23T04:43:47;16.00;99.90
9375;DHT22;4727;51.202;6.344;2022-07-23T04:46:12;16.00;99.90
9375;DHT22;4727;51.202;6.344;2022-07-23T04:48:39;16.10;99.90
9375;DHT22;4727;51.202;6.344;2022-07-23T04:51:05;16.10;99.90
9375;DHT22;4727;51.202;6.344;2022-07-23T04:53:30;16.00;99.90
9375;DHT22;4727;51.202;6.344;2022-07-23T04:55:56;16.00;99.90
9375;DHT22;4727;51.202;6.344;2022-07-23T04:58:22;16.10;99.90
9375;DHT22;4727;51.202;6.344;2022-07-23T05:00:48;16.00;99.90
9375;DHT22;4727;51.202;6.344;2022-07-23T05:03:15;16.00;99.90
9375;DHT22;4727;51.202;6.344;2022-07-23T05:05:41;16.00;99.90
9375;DHT22;4727;51.202;6.344;2022-07-23T05:08:06;16.10;99.90
9375;DHT22;4727;51.202;6.344;2022-07-23T05:10:32;16.10;99.90
9375;DHT22;4727;51.202;6.344;2022-07-23T05:12:57;16.20;99.90
9375;DHT22;4727;51.202;6.344;2022-07-23T05:15:23;16.30;99.90
9375;DHT22;4727;51.202;6.344;2022-07-23T05:17:49;16.40;99.90
9375;DHT22;4727;51.202;6.344;2022-07-23T05:20:14;16.40;99.90
9375;DHT22;4727;51.202;6.344;2022-07-23T05:22:40;16.30;99.90
9375;DHT22;4727;51.202;6.344;2022-07-23T05:25:06;16.20;99.90
9375;DHT22;4727;51.202;6.344;2022-07-23T05:27:32;16.20;99.90
9375;DHT22;4727;51.202;6.344;2022-07-23T05:29:58;16.30;99.90
9375;DHT22;4727;51.202;6.344;2022-07-23T05:32:23;16.30;99.90
9375;DHT22;4727;51.202;6.344;2022-07-23T05:34:49;16.40;99.90
9375;DHT22;4727;51.202;6.344;2022-07-23T05:37:15;16.50;99.90
9375;DHT22;4727;51.202;6.344;2022-07-23T05:39:41;16.60;99.90
9375;DHT22;4727;51.202;6.344;2022-07-23T05:42:06;16.70;99.90
9375;DHT22;4727;51.202;6.344;2022-07-23T05:44:33;16.80;99.90
9375;DHT22;4727;51.202;6.344;2022-07-23T05:46:58;16.90;99.90
9375;DHT22;4727;51.202;6.344;2022-07-23T05:49:24;16.90;99.90
9375;DHT22;4727;51.202;6.344;2022-07-23T05:51:51;17.00;99.90
9375;DHT22;4727;51.202;6.344;2022-07-23T05:54:17;17.00;99.90
9375;DHT22;4727;51.202;6.344;2022-07-23T05:56:42;17.10;99.90
9375;DHT22;4727;51.202;6.344;2022-07-23T05:59:08;17.20;99.90
9375;DHT22;4727;51.202;6.344;2022-07-23T06:01:34;17.20;99.90
9375;DHT22;4727;51.202;6.344;2022-07-23T06:03:59;17.30;99.90
9375;DHT22;4727;51.202;6.344;2022-07-23T06:06:25;17.30;99.90
9375;DHT22;4727;51.202;6.344;2022-07-23T06:08:51;17.30;99.90
9375;DHT22;4727;51.202;6.344;2022-07-23T06:11:16;17.30;99.90
9375;DHT22;4727;51.202;6.344;2022-07-23T06:13:42;17.30;99.90
9375;DHT22;4727;51.202;6.344;2022-07-23T06:16:07;17.40;99.90
9375;DHT22;4727;51.202;6.344;2022-07-23T06:18:33;17.50;99.90
9375;DHT22;4727;51.202;6.344;2022-07-23T06:20:59;17.50;99.90
9375;DHT22;4727;51.202;6.344;2022-07-23T06:23:24;17.50;99.90
9375;DHT22;4727;51.202;6.344;2022-07-23T06:25:50;17.60;99.90
9375;DHT22;4727;51.202;6.344;2022-07-23T06:28:15;17.60;99.90
9375;DHT22;4727;51.202;6.344;2022-07-23T06:30:41;17.50;99.90
9375;DHT22;4727;51.202;6.344;2022-07-23T06:33:07;17.60;99.90
9375;DHT22;4727;51.202;6.344;2022-07-23T06:35:32;17.60;99.90
9375;DHT22;4727;51.202;6.344;2022-07-23T06:37:59;17.60;99.90
9375;DHT22;4727;51.202;6.344;2022-07-23T06:40:25;17.70;99.90
9375;DHT22;4727;51.202;6.344;2022-07-23T06:42:51;17.60;99.90
9375;DHT22;4727;51.202;6.344;2022-07-23T06:45:16;17.50;99.90
9375;DHT22;4727;51.202;6.344;2022-07-23T06:47:42;17.70;99.90
9375;DHT22;4727;51.202;6.344;2022-07-23T06:50:08;17.60;99.90
9375;DHT22;4727;51.202;6.344;2022-07-23T06:52:34;17.70;99.90
9375;DHT22;4727;51.202;6.344;2022-07-23T06:54:59;17.80;99.90
9375;DHT22;4727;51.202;6.344;2022-07-23T06:57:25;17.90;99.90
9375;DHT22;4727;51.202;6.344;2022-07-23T06:59:51;17.90;99.90
9375;DHT22;4727;51.202;6.344;2022-07-23T07:02:17;17.90;99.90
9375;DHT22;4727;51.202;6.344;2022-07-23T07:04:43;18.00;99.90
9375;DHT22;4727;51.202;6.344;2022-07-23T07:07:08;18.10;99.90
9375;DHT22;4727;51.202;6.344;2022-07-23T07:09:34;18.20;99.90
9375;DHT22;4727;51.202;6.344;2022-07-23T07:11:59;18.30;99.90
9375;DHT22;4727;51.202;6.344;2022-07-23T07:14:25;18.40;99.90
9375;DHT22;4727;51.202;6.344;2022-07-23T07:16:51;18.50;99.90
9375;DHT22;4727;51.202;6.344;2022-07-23T07:19:16;18.60;99.90
9375;DHT22;4727;51.202;6.344;2022-07-23T07:21:42;18.60;99.90
9375;DHT22;4727;51.202;6.344;2022-07-23T07:24:08;18.60;99.90
9375;DHT22;4727;51.202;6.344;2022-07-23T07:26:33;18.50;99.90
9375;DHT22;4727;51.202;6.344;2022-07-23T07:28:59;18.60;99.90
9375;DHT22;4727;51.202;6.344;2022-07-23T07:31:24;18.70;99.90
9375;DHT22;4727;51.202;6.344;2022-07-23T07:33:50;18.70;99.90
9375;DHT22;4727;51.202;6.344;2022-07-23T07:36:16;18.70;99.90
9375;DHT22;4727;51.202;6.344;2022-07-23T07:38:41;18.80;99.90
9375;DHT22;4727;51.202;6.344;2022-07-23T07:41:07;18.80;99.90
9375;DHT22;4727;51.202;6.344;2022-07-23T07:43:35;18.90;99.90
9375;DHT22;4727;51.202;6.344;2022-07-23T07:46:01;19.00;99.90
9375;DHT22;4727;51.202;6.344;2022-07-23T07:48:27;19.10;99.90
9375;DHT22;4727;51.202;6.344;2022-07-23T07:50:52;19.10;99.90
9375;DHT22;4727;51.202;6.344;2022-07-23T07:53:18;19.10;99.90
9375;DHT22;4727;51.202;6.344;2022-07-23T07:55:44;19.10;99.90
9375;DHT22;4727;51.202;6.344;2022-07-23T07:58:09;19.10;99.90
9375;DHT22;4727;51.202;6.344;2022-07-23T08:00:35;19.20;99.90
9375;DHT22;4727;51.202;6.344;2022-07-23T08:03:01;19.20;99.90
9375;DHT22;4727;51.202;6.344;2022-07-23T08:05:28;19.20;99.90
9375;DHT22;4727;51.202;6.344;2022-07-23T08:07:58;19.20;99.90
9375;DHT22;4727;51.202;6.344;2022-07-23T08:10:25;19.30;99.90
9375;DHT22;4727;51.202;6.344;2022-07-23T08:12:55;19.30;99.90
9375;DHT22;4727;51.202;6.344;2022-07-23T08:15:27;19.30;99.90
9375;DHT22;4727;51.202;6.344;2022-07-23T08:17:55;19.30;99.90
9375;DHT22;4727;51.202;6.344;2022-07-23T08:20:22;19.40;99.90
9375;DHT22;4727;51.202;6.344;2022-07-23T08:22:57;19.50;99.90
9375;DHT22;4727;51.202;6.344;2022-07-23T08:25:37;19.50;99.90
9375;DHT22;4727;51.202;6.344;2022-07-23T08:28:05;19.60;99.90
9375;DHT22;4727;51.202;6.344;2022-07-23T08:30:32;19.60;99.90
9375;DHT22;4727;51.202;6.344;2022-07-23T08:33:00;19.70;99.90
9375;DHT22;4727;51.202;6.344;2022-07-23T08:35:34;19.80;99.90
9375;DHT22;4727;51.202;6.344;2022-07-23T08:38:02;19.80;99.90
9375;DHT22;4727;51.202;6.344;2022-07-23T08:40:30;19.90;99.90
9375;DHT22;4727;51.202;6.344;2022-07-23T08:42:56;19.90;99.90
9375;DHT22;4727;51.202;6.344;2022-07-23T08:45:23;20.00;99.90
9375;DHT22;4727;51.202;6.344;2022-07-23T08:47:51;20.10;99.90
9375;DHT22;4727;51.202;6.344;2022-07-23T08:50:17;20.10;99.90
9375;DHT22;4727;51.202;6.344;2022-07-23T08:52:43;20.10;99.90
9375;DHT22;4727;51.202;6.344;2022-07-23T08:55:09;20.20;99.90
9375;DHT22;4727;51.202;6.344;2022-07-23T08:57:35;20.20;99.90
9375;DHT22;4727;51.202;6.344;2022-07-23T09:00:00;20.30;99.90
9375;DHT22;4727;51.202;6.344;2022-07-23T09:02:26;20.30;99.90
9375;DHT22;4727;51.202;6.344;2022-07-23T09:04:52;20.30;99.90
9375;DHT22;4727;51.202;6.344;2022-07-23T09:07:18;20.40;99.90
9375;DHT22;4727;51.202;6.344;2022-07-23T09:09:43;20.50;99.90
9375;DHT22;4727;51.202;6.344;2022-07-23T09:12:10;20.40;99.90
9375;DHT22;4727;51.202;6.344;2022-07-23T09:14:41;20.30;99.90
9375;DHT22;4727;51.202;6.344;2022-07-23T09:17:15;20.30;99.90
9375;DHT22;4727;51.202;6.344;2022-07-23T09:19:42;20.30;99.90
9375;DHT22;4727;51.202;6.344;2022-07-23T09:22:25;20.40;99.90
9375;DHT22;4727;51.202;6.344;2022-07-23T09:25:17;20.50;99.90
9375;DHT22;4727;51.202;6.344;2022-07-23T09:27:48;20.60;99.90
9375;DHT22;4727;51.202;6.344;2022-07-23T09:30:15;20.70;99.90
9375;DHT22;4727;51.202;6.344;2022-07-23T09:32:41;20.70;99.90
9375;DHT22;4727;51.202;6.344;2022-07-23T09:35:07;20.70;99.90
9375;DHT22;4727;51.202;6.344;2022-07-23T09:37:33;20.80;99.90
9375;DHT22;4727;51.202;6.344;2022-07-23T09:40:09;20.90;99.90
9375;DHT22;4727;51.202;6.344;2022-07-23T09:42:38;20.90;99.90
9375;DHT22;4727;51.202;6.344;2022-07-23T09:45:10;21.00;99.90
9375;DHT22;4727;51.202;6.344;2022-07-23T09:47:37;21.10;99.90
9375;DHT22;4727;51.202;6.344;2022-07-23T09:50:08;21.10;99.90
9375;DHT22;4727;51.202;6.344;2022-07-23T09:52:45;21.10;99.90
9375;DHT22;4727;51.202;6.344;2022-07-23T09:55:15;21.20;99.90
9375;DHT22;4727;51.202;6.344;2022-07-23T09:57:41;21.20;99.90
9375;DHT22;4727;51.202;6.344;2022-07-23T10:00:10;21.30;99.90
9375;DHT22;4727;51.202;6.344;2022-07-23T10:02:37;21.30;99.90
9375;DHT22;4727;51.202;6.344;2022-07-23T10:05:04;21.40;99.90
9375;DHT22;4727;51.202;6.344;2022-07-23T10:07:36;21.50;99.90
9375;DHT22;4727;51.202;6.344;2022-07-23T10:10:04;21.40;99.90
9375;DHT22;4727;51.202;6.344;2022-07-23T10:12:31;21.30;99.90
9375;DHT22;4727;51.202;6.344;2022-07-23T10:15:04;21.40;99.90
9375;DHT22;4727;51.202;6.344;2022-07-23T10:17:31;21.50;99.90
9375;DHT22;4727;51.202;6.344;2022-07-23T10:19:57;21.50;99.90
9375;DHT22;4727;51.202;6.344;2022-07-23T10:22:29;21.70;99.90
9375;DHT22;4727;51.202;6.344;2022-07-23T10:25:20;21.80;99.90
9375;DHT22;4727;51.202;6.344;2022-07-23T10:28:40;22.00;99.90
9375;DHT22;4727;51.202;6.344;2022-07-23T10:31:28;22.00;99.90
9375;DHT22;4727;51.202;6.344;2022-07-23T10:34:07;22.00;99.90
9375;DHT22;4727;51.202;6.344;2022-07-23T10:36:44;22.10;99.90
9375;DHT22;4727;51.202;6.344;2022-07-23T10:39:20;22.10;99.90
9375;DHT22;4727;51.202;6.344;2022-07-23T10:41:47;22.20;99.90
9375;DHT22;4727;51.202;6.344;2022-07-23T10:44:14;22.20;99.90
9375;DHT22;4727;51.202;6.344;2022-07-23T10:46:59;22.30;99.90
9375;DHT22;4727;51.202;6.344;2022-07-23T10:49:44;22.40;99.90
9375;DHT22;4727;51.202;6.344;2022-07-23T10:52:17;22.50;99.90
9375;DHT22;4727;51.202;6.344;2022-07-23T10:54:45;22.60;99.90
9375;DHT22;4727;51.202;6.344;2022-07-23T10:57:12;22.70;99.90
9375;DHT22;4727;51.202;6.344;2022-07-23T11:02:28;22.80;99.90
9375;DHT22;4727;51.202;6.344;2022-07-23T11:04:56;22.80;99.90
9375;DHT22;4727;51.202;6.344;2022-07-23T11:07:24;22.90;99.90
9375;DHT22;4727;51.202;6.344;2022-07-23T11:09:49;22.90;99.90
9375;DHT22;4727;51.202;6.344;2022-07-23T11:15:09;22.80;82.40
9375;DHT22;4727;51.202;6.344;2022-07-23T11:22:40;22.90;39.20
9375;DHT22;4727;51.202;6.344;2022-07-23T11:25:06;23.00;65.40
9375;DHT22;4727;51.202;6.344;2022-07-23T11:27:42;23.20;85.00
9375;DHT22;4727;51.202;6.344;2022-07-23T11:30:10;23.20;42.60
9375;DHT22;4727;51.202;6.344;2022-07-23T11:32:38;23.30;54.60
9375;DHT22;4727;51.202;6.344;2022-07-23T11:37:50;23.40;1.00
9375;DHT22;4727;51.202;6.344;2022-07-23T11:40:19;23.30;47.60
9375;DHT22;4727;51.202;6.344;2022-07-23T11:43:08;23.40;17.80
9375;DHT22;4727;51.202;6.344;2022-07-23T11:45:36;23.40;1.00
9375;DHT22;4727;51.202;6.344;2022-07-23T11:48:04;23.40;22.00
9375;DHT22;4727;51.202;6.344;2022-07-23T11:50:30;23.50;25.70
9375;DHT22;4727;51.202;6.344;2022-07-23T11:52:56;23.60;40.70
9375;DHT22;4727;51.202;6.344;2022-07-23T11:55:21;23.70;30.90
9375;DHT22;4727;51.202;6.344;2022-07-23T11:57:50;23.80;1.00
9375;DHT22;4727;51.202;6.344;2022-07-23T12:00:18;23.80;14.60
9375;DHT22;4727;51.202;6.344;2022-07-23T12:02:45;24.00;1.00
9375;DHT22;4727;51.202;6.344;2022-07-23T12:05:20;24.00;1.00
9375;DHT22;4727;51.202;6.344;2022-07-23T12:07:51;24.00;1.00
9375;DHT22;4727;51.202;6.344;2022-07-23T12:10:23;24.00;1.00
9375;DHT22;4727;51.202;6.344;2022-07-23T12:12:59;23.90;1.00
9375;DHT22;4727;51.202;6.344;2022-07-23T12:15:37;24.10;1.00
9375;DHT22;4727;51.202;6.344;2022-07-23T12:18:05;24.20;1.00
9375;DHT22;4727;51.202;6.344;2022-07-23T12:20:34;24.30;1.00
9375;DHT22;4727;51.202;6.344;2022-07-23T12:23:02;24.30;1.00
9375;DHT22;4727;51.202;6.344;2022-07-23T12:25:30;24.40;1.00
9375;DHT22;4727;51.202;6.344;2022-07-23T12:28:08;24.30;1.00
9375;DHT22;4727;51.202;6.344;2022-07-23T12:30:46;24.60;74.70
9375;DHT22;4727;51.202;6.344;2022-07-23T12:33:29;24.80;1.00
9375;DHT22;4727;51.202;6.344;2022-07-23T12:35:57;25.00;1.00
9375;DHT22;4727;51.202;6.344;2022-07-23T12:38:26;24.80;1.00
9375;DHT22;4727;51.202;6.344;2022-07-23T12:40:54;24.90;1.00
9375;DHT22;4727;51.202;6.344;2022-07-23T12:43:28;25.10;1.00
9375;DHT22;4727;51.202;6.344;2022-07-23T12:46:36;25.30;1.00
9375;DHT22;4727;51.202;6.344;2022-07-23T12:48:54;25.40;1.00
9375;DHT22;4727;51.202;6.344;2022-07-23T12:51:26;25.80;1.00
9375;DHT22;4727;51.202;6.344;2022-07-23T12:53:58;26.10;1.00
9375;DHT22;4727;51.202;6.344;2022-07-23T12:56:34;26.10;1.00
9375;DHT22;4727;51.202;6.344;2022-07-23T13:01:31;25.90;1.00
9375;DHT22;4727;51.202;6.344;2022-07-23T13:04:11;26.10;1.00
9375;DHT22;4727;51.202;6.344;2022-07-23T13:11:32;26.40;1.00
9375;DHT22;4727;51.202;6.344;2022-07-23T13:13:59;26.40;1.00
9375;DHT22;4727;51.202;6.344;2022-07-23T13:16:29;26.50;1.00
9375;DHT22;4727;51.202;6.344;2022-07-23T13:18:56;26.60;1.00
9375;DHT22;4727;51.202;6.344;2022-07-23T13:21:22;26.90;1.00
9375;DHT22;4727;51.202;6.344;2022-07-23T13:23:48;27.20;1.00
9375;DHT22;4727;51.202;6.344;2022-07-23T13:26:14;27.40;1.00
9375;DHT22;4727;51.202;6.344;2022-07-23T13:28:39;27.40;1.00
9375;DHT22;4727;51.202;6.344;2022-07-23T13:31:05;27.00;1.00
9375;DHT22;4727;51.202;6.344;2022-07-23T13:33:30;27.30;1.00
9375;DHT22;4727;51.202;6.344;2022-07-23T13:35:56;27.40;1.00
9375;DHT22;4727;51.202;6.344;2022-07-23T13:38:22;27.20;1.00
9375;DHT22;4727;51.202;6.344;2022-07-23T13:40:52;27.20;1.00
9375;DHT22;4727;51.202;6.344;2022-07-23T13:43:19;27.60;1.00
9375;DHT22;4727;51.202;6.344;2022-07-23T13:45:45;28.00;1.00
9375;DHT22;4727;51.202;6.344;2022-07-23T13:48:12;28.20;1.00
9375;DHT22;4727;51.202;6.344;2022-07-23T13:50:39;28.30;1.00
9375;DHT22;4727;51.202;6.344;2022-07-23T13:53:13;28.30;1.00
9375;DHT22;4727;51.202;6.344;2022-07-23T13:55:40;28.60;1.00
9375;DHT22;4727;51.202;6.344;2022-07-23T13:58:07;28.80;1.00
9375;DHT22;4727;51.202;6.344;2022-07-23T14:00:35;28.40;1.00
9375;DHT22;4727;51.202;6.344;2022-07-23T14:03:00;28.50;1.00
9375;DHT22;4727;51.202;6.344;2022-07-23T14:05:27;28.40;1.00
9375;DHT22;4727;51.202;6.344;2022-07-23T14:07:53;28.30;1.00
9375;DHT22;4727;51.202;6.344;2022-07-23T14:10:20;28.20;1.00
9375;DHT22;4727;51.202;6.344;2022-07-23T14:12:47;28.10;1.00
9375;DHT22;4727;51.202;6.344;2022-07-23T14:15:14;28.20;1.00
9375;DHT22;4727;51.202;6.344;2022-07-23T14:17:43;28.50;1.00
9375;DHT22;4727;51.202;6.344;2022-07-23T14:20:10;28.80;1.00
9375;DHT22;4727;51.202;6.344;2022-07-23T14:22:36;28.80;1.00
9375;DHT22;4727;51.202;6.344;2022-07-23T14:25:03;28.90;1.00
9375;DHT22;4727;51.202;6.344;2022-07-23T14:27:29;28.40;1.00
9375;DHT22;4727;51.202;6.344;2022-07-23T14:29:55;28.70;1.00
9375;DHT22;4727;51.202;6.344;2022-07-23T14:32:21;28.90;1.00
9375;DHT22;4727;51.202;6.344;2022-07-23T14:34:47;29.00;1.00
9375;DHT22;4727;51.202;6.344;2022-07-23T14:37:14;29.00;1.00
9375;DHT22;4727;51.202;6.344;2022-07-23T14:39:40;29.30;1.00
9375;DHT22;4727;51.202;6.344;2022-07-23T14:42:07;29.60;1.00
9375;DHT22;4727;51.202;6.344;2022-07-23T14:44:33;29.80;1.00
9375;DHT22;4727;51.202;6.344;2022-07-23T14:46:59;30.10;1.00
9375;DHT22;4727;51.202;6.344;2022-07-23T14:49:26;29.90;1.00
9375;DHT22;4727;51.202;6.344;2022-07-23T14:51:51;29.60;1.00
9375;DHT22;4727;51.202;6.344;2022-07-23T14:54:17;29.20;1.00
9375;DHT22;4727;51.202;6.344;2022-07-23T14:56:43;28.90;1.00
9375;DHT22;4727;51.202;6.344;2022-07-23T14:59:09;28.40;1.00
9375;DHT22;4727;51.202;6.344;2022-07-23T15:01:35;27.80;1.00
9375;DHT22;4727;51.202;6.344;2022-07-23T15:04:02;27.70;99.90
9375;DHT22;4727;51.202;6.344;2022-07-23T15:06:27;27.60;99.90
9375;DHT22;4727;51.202;6.344;2022-07-23T15:08:53;27.30;99.90
9375;DHT22;4727;51.202;6.344;2022-07-23T15:11:19;27.10;99.90
9375;DHT22;4727;51.202;6.344;2022-07-23T15:13:45;27.30;99.90
9375;DHT22;4727;51.202;6.344;2022-07-23T15:16:10;27.40;99.90
9375;DHT22;4727;51.202;6.344;2022-07-23T15:18:36;27.40;1.00
9375;DHT22;4727;51.202;6.344;2022-07-23T15:21:02;27.30;99.90
9375;DHT22;4727;51.202;6.344;2022-07-23T15:23:28;27.40;1.00
9375;DHT22;4727;51.202;6.344;2022-07-23T15:25:55;27.70;1.00
9375;DHT22;4727;51.202;6.344;2022-07-23T15:28:21;27.80;1.00
9375;DHT22;4727;51.202;6.344;2022-07-23T15:30:47;27.90;1.00
9375;DHT22;4727;51.202;6.344;2022-07-23T15:33:12;28.10;1.00
9375;DHT22;4727;51.202;6.344;2022-07-23T15:35:38;28.20;1.00
9375;DHT22;4727;51.202;6.344;2022-07-23T15:38:03;28.50;1.00
9375;DHT22;4727;51.202;6.344;2022-07-23T15:40:29;28.80;1.00
9375;DHT22;4727;51.202;6.344;2022-07-23T15:42:54;29.00;1.00
9375;DHT22;4727;51.202;6.344;2022-07-23T15:45:20;29.10;1.00
9375;DHT22;4727;51.202;6.344;2022-07-23T15:47:47;29.00;1.00
9375;DHT22;4727;51.202;6.344;2022-07-23T15:50:14;29.00;1.00
9375;DHT22;4727;51.202;6.344;2022-07-23T15:52:40;29.10;1.00
9375;DHT22;4727;51.202;6.344;2022-07-23T15:55:06;29.10;1.00
9375;DHT22;4727;51.202;6.344;2022-07-23T15:57:32;29.20;1.00
9375;DHT22;4727;51.202;6.344;2022-07-23T15:59:58;29.20;1.00
9375;DHT22;4727;51.202;6.344;2022-07-23T16:02:24;29.20;1.00
9375;DHT22;4727;51.202;6.344;2022-07-23T16:04:50;29.00;1.00
9375;DHT22;4727;51.202;6.344;2022-07-23T16:07:18;29.20;1.00
9375;DHT22;4727;51.202;6.344;2022-07-23T16:09:44;29.20;1.00
9375;DHT22;4727;51.202;6.344;2022-07-23T16:12:10;29.20;1.00
9375;DHT22;4727;51.202;6.344;2022-07-23T16:14:36;29.30;1.00
9375;DHT22;4727;51.202;6.344;2022-07-23T16:17:02;29.20;1.00
9375;DHT22;4727;51.202;6.344;2022-07-23T16:19:27;29.20;1.00
9375;DHT22;4727;51.202;6.344;2022-07-23T16:21:53;29.10;1.00
9375;DHT22;4727;51.202;6.344;2022-07-23T16:24:19;29.00;1.00
9375;DHT22;4727;51.202;6.344;2022-07-23T16:26:45;28.90;1.00